Terminal Aerodrome Forecast
Issued by NWS

Home | Current Version | Previous Version | Text Only | Print | Product List | Glossary On
Versions: 1 2 3 4 5 6 7 8 9 10 11 12 13 14 15 16 17 18 19 20
000
FTUS45 KTFX 180526
TAFBZN
TAF
KBZN 180526Z 1806/1912 18006KT P6SM SCT040 BKN070
     FM181100 19009KT P6SM VCSH SCT040 OVC080 PROB30 1900/1906 4SM
      -RASN BR SCT020 BKN040=

USA.gov is the U.S. government's official web portal to all federal, state and local government web resources and services.